• Join FlightAware (Why Join?)
  • Login
  • US Flag 
06:07AM EDT


 

Airport Tracker/Info


-or-


 

Live Flight TrackerFlight Track Log ✈ UPS2752 ✈ 16-Jan-2014 ✈ KSDF - KDFW

Flight Track Log - Related Links

Times and Time Zones

All times are in EST time to prevent confusion due to time zone crossing. See the UPS2752 flight status page for this flight to view local times or setup timezone preferences in your user account.

Time Position Orientation Groundspeed Altitude Reporting Facility
EST Latitude Longitude Course Direction KTS MPH feet Rate Location/Type
05:17PM 38.0661 -85.9311 239° Southwest 248 285 10,700  Level Indianapolis Center
05:23PM 37.7834 -86.5231 238° Southwest 390 449 25,400 2,820 Climbing FlightAware ADS-B
05:23PM 37.7425 -86.6055 238° Southwest 372 428 27,700 4,260 Climbing FlightAware ADS-B
05:24PM 37.7425 -86.6055 238° Southwest 332 382 30,600 3,480 Climbing FlightAware ADS-B
05:24PM 37.6897 -86.7110 238° Southwest 342 394 31,400 1,080 Climbing FlightAware ADS-B
05:25PM 37.6616 -86.7658 237° Southwest 354 407 31,800 540 Climbing FlightAware ADS-B
05:26PM 37.6150 -86.8573 237° Southwest 379 436 32,300 540 Climbing FlightAware ADS-B (KBRY)
05:27PM 37.5797 -86.9260 237° Southwest 403 464 32,800 840 Climbing FlightAware ADS-B
05:28PM 37.4896 -87.1014 237° Southwest 403 464 34,000 1,260 Climbing FlightAware ADS-B
05:29PM 37.4896 -87.1014 237° Southwest 418 481 35,300 1,020 Climbing FlightAware ADS-B
05:29PM 37.3946 -87.2859 237° Southwest 414 476 35,600 600 Climbing FlightAware ADS-B
05:30PM 37.3613 -87.3498 237° Southwest 403 464 36,100 900 Climbing FlightAware ADS-B
05:30PM 37.3297 -87.4109 237° Southwest 398 458 36,600 960 Climbing FlightAware ADS-B
05:31PM 37.2849 -87.4982 237° Southwest 396 456 37,500 720 Climbing FlightAware ADS-B
05:32PM 37.2562 -87.5531 237° Southwest 395 455 38,000 180 Climbing FlightAware ADS-B
05:33PM 37.1921 -87.6766 237° Southwest 416 479 38,000  Level FlightAware ADS-B
05:34PM 37.1311 -87.7925 237° Southwest 411 473 38,000  Level Indianapolis Center
05:35PM 37.0556 -87.9336 236° Southwest 414 476 38,000  Level Indianapolis Center
05:36PM 36.9928 -88.0544 237° Southwest 412 474 38,000  Level Indianapolis Center
05:37PM 36.9286 -88.1756 236° Southwest 414 476 38,000  Level Indianapolis Center
05:38PM 36.8639 -88.2969 236° Southwest 415 478 38,000  Level Indianapolis Center
05:39PM 36.8003 -88.4164 236° Southwest 413 475 38,000  Level Indianapolis Center
05:40PM 36.7375 -88.5372 237° Southwest 413 475 38,000  Level Indianapolis Center
05:41PM 36.6739 -88.6528 236° Southwest 405 466 38,000 -60 Level Indianapolis Center
05:43PM 36.5756 -88.8344 236° Southwest 403 464 37,900  Descending Memphis Center
05:44PM 36.5150 -88.9494 237° Southwest 399 459 38,000  Climbing Memphis Center
05:45PM 36.4533 -89.0642 236° Southwest 398 458 38,000  Level Memphis Center
05:46PM 36.3906 -89.1797 236° Southwest 398 458 38,000 -300 Level Memphis Center
05:47PM 36.3278 -89.2931 236° Southwest 393 452 37,400 -840 Descending Memphis Center
05:48PM 36.2628 -89.4103 236° Southwest 396 456 36,300 -720 Descending Memphis Center
05:49PM 36.2003 -89.5236 236° Southwest 397 457 36,000 -180 Descending Memphis Center
05:50PM 36.1375 -89.6378 236° Southwest 399 459 36,000  Level Memphis Center
05:51PM 36.0736 -89.7822 241° Southwest 398 458 36,000  Level Memphis Center
05:52PM 36.0200 -89.9022 241° Southwest 397 457 36,000  Level Memphis Center
05:53PM 35.9664 -90.0219 241° Southwest 398 458 36,000  Level Memphis Center
05:54PM 35.9133 -90.1411 241° Southwest 396 456 36,000  Level Memphis Center
05:55PM 35.8608 -90.2578 241° Southwest 393 452 36,000  Level Memphis Center
05:56PM 35.8078 -90.3750 241° Southwest 391 450 36,000  Level Memphis Center
05:57PM 35.7453 -90.5125 241° Southwest 386 444 36,000  Level Memphis Center
05:58PM 35.6947 -90.6253 241° Southwest 379 436 36,000  Level Memphis Center
05:59PM 35.6453 -90.7319 240° Southwest 376 433 36,000 -60 Level Memphis Center
06:00PM 35.5953 -90.8425 241° Southwest 371 427 35,900  Descending Memphis Center
06:01PM 35.5439 -90.9539 240° Southwest 371 427 36,000  Climbing Memphis Center
06:02PM 35.4836 -91.0872 241° Southwest 378 435 36,000  Level Memphis Center
06:03PM 35.4289 -91.2042 240° Southwest 387 445 36,000  Level Memphis Center
06:04PM 35.3786 -91.3147 241° Southwest 394 453 36,000  Level Memphis Center
06:05PM 35.3233 -91.4303 240° Southwest 394 453 36,000  Level Memphis Center
06:06PM 35.2586 -91.5672 240° Southwest 390 449 36,000 -60 Level Memphis Center
06:07PM 35.2075 -91.6792 241° Southwest 382 440 35,900 -60 Descending Memphis Center
06:08PM 35.1553 -91.7900 240° Southwest 378 435 35,900  Level Memphis Center
06:09PM 35.1039 -91.9011 241° Southwest 377 434 36,000  Climbing Memphis Center
06:10PM 35.0494 -92.0153 240° Southwest 384 442 36,000  Level Memphis Center
06:12PM 34.9950 -92.1294 240° Southwest 387 445 36,000  Level Memphis Center
06:13PM 34.9397 -92.2444 240° Southwest 390 449 36,000  Level Memphis Center
06:14PM 34.8739 -92.3817 240° Southwest 390 449 36,000 -60 Level Memphis Center
06:15PM 34.8197 -92.4933 239° Southwest 384 442 35,900  Descending Memphis Center
06:16PM 34.7672 -92.6044 240° Southwest 381 438 36,000  Climbing Memphis Center
06:17PM 34.7142 -92.7144 240° Southwest 377 434 36,000  Level Memphis Center
06:18PM 34.6603 -92.8261 240° Southwest 380 437 36,000 -120 Level Memphis Center
06:24PM 34.3317 -93.4960 240° Southwest 382 440 35,300 -180 Descending FlightAware ADS-B (KDTN)
06:25PM 34.2958 -93.6022 240° Southwest 372 428 35,000 -180 Descending Fort Worth Center
06:26PM 34.2589 -93.7392 252° West 362 417 35,000  Level Fort Worth Center
06:27PM 34.2278 -93.8531 252° West 359 413 35,000  Level Fort Worth Center
06:28PM 34.1961 -93.9667 251° West 360 414 35,000  Level Fort Worth Center
06:29PM 34.1647 -94.0794 251° West 358 412 35,000  Level Fort Worth Center
06:30PM 34.1322 -94.1939 251° West 361 415 35,000  Level Fort Worth Center
06:31PM 34.0939 -94.3311 251° West 361 415 35,000  Level Fort Worth Center
06:32PM 34.0614 -94.4453 251° West 362 417 35,000  Level Fort Worth Center
06:33PM 34.0289 -94.5611 251° West 366 421 35,000 -360 Level Fort Worth Center
06:34PM 33.9969 -94.6758 251° West 366 421 34,300 -780 Descending Fort Worth Center
06:35PM 33.9633 -94.7908 251° West 365 420 33,500 -840 Descending Fort Worth Center
06:36PM 33.9317 -94.9017 251° West 355 409 32,600 -960 Descending Fort Worth Center
06:37PM 33.8925 -95.0344 250° West 352 405 31,500 -1,020 Descending Fort Worth Center
06:38PM 33.8592 -95.1517 251° West 367 422 30,600 -1,020 Descending Fort Worth Center
06:39PM 33.8233 -95.2711 250° West 380 437 29,500 -1,080 Descending Fort Worth Center
06:40PM 33.7889 -95.3919 251° West 384 442 28,400 -1,080 Descending Fort Worth Center
06:41PM 33.7522 -95.5142 250° West 390 449 27,300 -1,080 Descending Fort Worth Center
06:42PM 33.7133 -95.6464 251° West 388 447 26,200 -1,080 Descending Fort Worth Center
06:43PM 33.6783 -95.7661 251° West 384 442 25,100 -1,260 Descending Fort Worth Center
06:44PM 33.6356 -95.9100 250° West 382 440 23,700 -1,260 Descending Fort Worth Center
06:45PM 33.5958 -96.0386 250° West 384 442 22,600 -1,500 Descending Fort Worth Center
06:46PM 33.5608 -96.1564 250° West 375 432 20,700 -2,160 Descending Fort Worth Center
06:47PM 33.5106 -96.2622 240° Southwest 375 432 18,100 -2,160 Descending Fort Worth Center
06:48PM 33.4311 -96.3600 226° Southwest 378 435 16,200 -1,560 Descending Fort Worth Center
06:50PM 33.3622 -96.4447 226° Southwest 361 415 14,900 -1,200 Descending Fort Worth Center
06:51PM 33.2833 -96.5333 223° Southwest 362 417 13,800 -1,680 Descending Dallas / Fort Worth TRACON
06:52PM 33.2167 -96.6167 226° Southwest 357 411 11,500 -1,380 Descending Dallas / Fort Worth TRACON
06:53PM 33.1333 -96.7000 220° Southwest 351 404 11,100 -240 Descending Dallas / Fort Worth TRACON
06:54PM 33.0728 -96.7844 229° Southwest 341 392 11,100 -60 Level Fort Worth Center
06:55PM 33.0167 -96.8500 224° Southwest 263 303 11,000 -60 Descending Dallas / Fort Worth TRACON
06:56PM 32.9667 -96.9000 220° Southwest 246 283 11,000 -540 Level Dallas / Fort Worth TRACON
06:57PM 32.9000 -96.9000 180° South 262 302 10,000 -1,500 Descending Dallas / Fort Worth TRACON
06:58PM 32.8167 -96.9000 180° South 279 321 8,200 -1,680 Descending Dallas / Fort Worth TRACON
06:59PM 32.7333 -96.9000 180° South 254 292 6,600 -1,620 Descending Dallas / Fort Worth TRACON
07:00PM 32.6833 -96.9333 209° Southwest 235 270 4,800 -1,380 Descending Dallas / Fort Worth TRACON
07:01PM 32.6833 -96.9833 270° West 197 227 3,900 -780 Descending Dallas / Fort Worth TRACON
07:02PM 32.7333 -97.0167 331° Northwest 182 209 3,300 -660 Descending Dallas / Fort Worth TRACON
07:03PM 32.7833 -97.0333 344° North 177 204 2,600 -900 Descending Dallas / Fort Worth TRACON
07:04PM 32.8167 -97.0167 23° Northeast 152 175 1,700 -900 Descending Dallas / Fort Worth TRACON
07:05PM 32.8667 -97.0167 360° North 142 163 900 -780 Descending Dallas / Fort Worth TRACON